• Join FlightAware (Why Join?)
  • Login
  • US Flag 
08:44PM EDT


 

Airport Tracker/Info


-or-


 

Live Flight TrackerFlight Track Log ✈ VH-ZOR ✈ 24-Apr-2012 ✈ YFTZ / FIZ - YBRM / BME

Flight Track Log - Related Links

Times and Time Zones

All times are in EDT time to prevent confusion due to time zone crossing. See the VH-ZOR flight status page for this flight to view local times or setup timezone preferences in your user account.

Time Position Orientation Groundspeed Altitude Reporting Facility
EDT Latitude Longitude Course Direction KTS MPH feet Rate Location/Type
01:18AM -18.1863 125.5057 360° North 20,000  Level Aus ATC (Calculated)
01:18AM -18.1863 125.5057 274° West 20,000  Level Aus ATC (Calculated)
01:18AM -18.1825 125.4510 292° West 20,000  Level Aus ATC (Calculated)
01:18AM -18.1825 125.4510 274° West 20,000  Level Aus ATC (Calculated)
01:21AM -18.1712 125.2871 274° West 20,000  Level Aus ATC (Calculated)
01:22AM -18.1673 125.2325 274° West 20,000  Level Aus ATC (Calculated)
01:27AM -18.1480 124.9593 274° West 20,000  Level Aus ATC (Calculated)
01:29AM -18.1362 124.7955 274° West 20,000  Level Aus ATC (Calculated)
01:31AM -18.1283 124.6862 274° West 20,000  Level Aus ATC (Calculated)
01:32AM -18.1231 124.6142 274° West  Level FlightAware Approximate
01:35AM -18.1123 124.4678 274° West 20,000  Level Aus ATC (Calculated)
01:39AM -18.0919 124.1948 275° West 20,000  Level Aus ATC (Calculated)
01:42AM -18.0795 124.0311 275° West 20,000  Level Aus ATC (Calculated)
01:43AM -18.0711 123.9219 274° West 20,000 -3,780 Level Aus ATC (Calculated)
01:47AM -18.0558 123.7141 274° West 500 -4,500 Descending Aus ATC (Calculated)
01:48AM -18.0488 123.6155 274° West 500  Level Aus ATC (Calculated)
01:49AM -18.0441 123.5497 274° West  Level Estimated
01:50AM -18.0391 123.4791 274° West  Level FlightAware Approximate
01:55AM -18.0133 123.1224 360° North 500  Level Aus ATC (Calculated)
01:55AM -18.0133 123.1224 North 500  Level Aus ATC (Calculated)
01:55AM -18.0133 123.1224 274° West 500  Level Aus ATC (Calculated)
01:57AM -18.0064 123.0305 274° West  Level Estimated
01:58AM -18.0028 122.9789 275° West  Level FlightAware Approximate
01:59AM -17.9980 122.9163 274° West  Level Estimated
02:00AM -17.9926 122.8425 274° West  Level FlightAware Approximate
02:04AM -17.9691 122.5309 360° North 500  Level Aus ATC (Calculated)
02:04AM -17.9691 122.5309 275° West 500  Level Aus ATC (Calculated)
02:06AM -17.9627 122.4517 274° West  Level Estimated
02:07AM -17.9593 122.4031 275° West  Level FlightAware Approximate
02:08AM -17.9525 122.3265 273° West  Level Estimated
02:09AM -17.9499 122.2819 276° West  Level FlightAware Approximate
02:10AM -17.9435 122.2195 101° East  Level Estimated
02:11AM -17.9463 122.2353 295° West  Level FlightAware Approximate
02:12AM -17.9214 122.1782 115° Southeast  Level Estimated
02:13AM -17.9463 122.2353 295° West  Level FlightAware Approximate
02:14AM -17.9214 122.1782 115° Southeast  Level Estimated
02:15AM -17.9463 122.2353 295° West  Level FlightAware Approximate
02:16AM -17.9214 122.1782 115° Southeast  Level Estimated
02:17AM -17.9463 122.2353 295° West  Level FlightAware Approximate
02:18AM -17.9214 122.1782 115° Southeast  Level Estimated
02:19AM -17.9463 122.2353 295° West  Level FlightAware Approximate
02:20AM -17.9214 122.1782 115° Southeast  Level Estimated
02:21AM -17.9463 122.2353 295° West  Level FlightAware Approximate
02:22AM -17.9214 122.1782 115° Southeast  Level Estimated
02:23AM -17.9463 122.2353 295° West  Level FlightAware Approximate
02:24AM -17.9214 122.1782 115° Southeast  Level Estimated
02:25AM -17.9463 122.2353 115° Southeast  Level FlightAware Approximate